Main page
METAR-TAF:

METAR-TAF

Airports :

Ouagadougou Airport

Ouagadougou, Burkina Faso

latitude: 12-21N, longitude: 001-31W, elevation: 316 m

Current weather observation

The report was made 1 hour and 9 minutes ago, at 16:00 UTC
Wind 2 kt from the North
Temperature 36°C
Humidity 42%
Pressure 1007 hPa
Visibility 10 km or more
Few clouds at a height of 2000 ft
Few clouds at a height of 3300 ft, Cumulonimbus.

METAR: DFFD 181600Z 36002KT 9999 FEW020 FEW033CB 36/21 Q1007 TEMPO TS

Time: 17:09 (17:09 UTC)

Forecast

The report was made 6 hours and 9 minutes ago, at 11:00 UTC
Forecast valid from 18 at 12 UTC to 19 at 18 UTC
Wind 8 kt from the West/Southwest
Visibility 10 km or more
Few clouds at a height of 2000 ft
Probability 30% :
Temporary
from 18 at 15 UTC to 18 at 22 UTC
Visibility: 4000 m
Scattered clouds at a height of 2000 ft
Scattered clouds at a height of 3600 ft, Cumulonimbus.
thunderstorm, rain

TAF: DFFD 181100Z 1812/1918 24008KT 9999 FEW020 PROB30 TEMPO 1815/1822 4000 TSRA SCT020 SCT036CB

Weather observations and forecasts of more than 4000 airports (METAR and TAF reports).

The available stations are represented by yellow and red dots on the map.

Hover mouse over dot to see the name of the station.

Then click to see weather observations and forecasts.

To change the map : click on the green buttons with a black cross to zoom in, on the green button with a dash to zoom out, or on the green arrows for adjacent maps.


METAR-TAF: